createdAt,value
2018-12-02T00:01:08.445Z,396.35
2018-12-02T00:04:14.382Z,395.12
2018-12-02T00:07:09.203Z,404.70
2018-12-02T00:10:05.595Z,420.18
2018-12-02T00:13:01.886Z,425.60
2018-12-02T00:15:58.139Z,404.80
2018-12-02T00:18:54.886Z,422.65
2018-12-02T00:21:51.216Z,425.77
2018-12-02T00:24:47.461Z,397.85
2018-12-02T00:27:44.512Z,415.65
2018-12-02T00:30:40.852Z,407.32
2018-12-02T00:33:37.354Z,411.95
2018-12-02T00:36:39.296Z,403.82
2018-12-02T00:39:35.777Z,418.60
2018-12-02T00:42:32.124Z,412.57
2018-12-02T00:45:32.219Z,416.52
2018-12-02T00:48:28.653Z,408.50
2018-12-02T00:51:25.631Z,414.75
2018-12-02T00:54:21.791Z,407.60
2018-12-02T00:57:18.892Z,393.42
2018-12-02T01:00:17.647Z,401.02
2018-12-02T01:03:15.126Z,393.95
2018-12-02T01:06:11.344Z,393.25
2018-12-02T01:09:07.940Z,384.35
2018-12-02T01:12:04.685Z,382.10
2018-12-02T01:15:01.929Z,356.68
2018-12-02T01:17:58.283Z,337.93
2018-12-02T01:20:54.689Z,351.23
2018-12-02T01:23:51.082Z,353.32
2018-12-02T01:26:47.442Z,362.08
2018-12-02T01:29:43.834Z,366.82
2018-12-02T01:32:42.716Z,436.10
2018-12-02T01:35:39.737Z,358.47
2018-12-02T01:38:36.254Z,375.95
2018-12-02T01:41:32.887Z,366.82
2018-12-02T01:44:29.474Z,373.75
2018-12-02T01:47:26.364Z,388.27
2018-12-02T01:50:29.464Z,376.50
2018-12-02T01:53:25.909Z,372.73
2018-12-02T01:56:22.366Z,355.62
2018-12-02T01:59:18.989Z,374.62
2018-12-02T02:02:15.879Z,390.00
2018-12-02T02:05:13.371Z,368.88
2018-12-02T02:08:10.199Z,388.18
2018-12-02T02:11:06.638Z,360.20
2018-12-02T02:14:03.214Z,362.85
2018-12-02T02:16:59.331Z,403.40
2018-12-02T02:19:58.199Z,387.10
2018-12-02T02:22:54.557Z,386.52
2018-12-02T02:25:52.214Z,408.62
2018-12-02T02:28:51.461Z,370.75
2018-12-02T02:31:48.297Z,379.82
2018-12-02T02:34:44.739Z,384.18
2018-12-02T02:37:41.457Z,369.50
2018-12-02T02:40:38.336Z,378.58
2018-12-02T02:43:34.362Z,367.05
2018-12-02T02:46:31.705Z,379.60
2018-12-02T02:49:28.274Z,393.67
2018-12-02T02:52:24.224Z,372.70
2018-12-02T02:55:21.096Z,384.55
2018-12-02T02:58:17.838Z,355.73
2018-12-02T03:01:14.629Z,334.65
2018-12-02T03:04:11.380Z,333.57
2018-12-02T03:07:08.139Z,353.15
2018-12-02T03:10:04.909Z,338.35
2018-12-02T03:13:01.571Z,344.43
2018-12-02T03:15:58.476Z,323.50
2018-12-02T03:19:01.309Z,324.52
2018-12-02T03:21:58.005Z,322.23
2018-12-02T03:24:54.695Z,320.52
2018-12-02T03:27:51.014Z,306.85
2018-12-02T03:30:47.721Z,342.68
2018-12-02T03:33:44.314Z,310.70
2018-12-02T03:36:41.361Z,297.67
2018-12-02T03:39:37.899Z,306.25
2018-12-02T03:42:34.240Z,276.88
2018-12-02T03:45:33.993Z,308.05
2018-12-02T03:48:30.149Z,315.98
2018-12-02T03:51:29.374Z,308.87
2018-12-02T03:54:25.509Z,294.70
2018-12-02T03:57:22.230Z,303.80
2018-12-02T04:00:29.139Z,277.50
2018-12-02T04:03:25.915Z,324.98
2018-12-02T04:06:22.244Z,301.18
2018-12-02T04:09:18.419Z,308.93
2018-12-02T04:12:15.289Z,305.35
2018-12-02T04:15:12.996Z,304.40
2018-12-02T04:18:08.965Z,295.75
2018-12-02T04:21:05.345Z,298.82
2018-12-02T04:24:01.580Z,318.63
2018-12-02T04:26:58.068Z,321.93
2018-12-02T04:29:55.000Z,290.45
2018-12-02T04:32:55.567Z,279.43
2018-12-02T04:35:52.084Z,271.43
2018-12-02T04:38:48.158Z,228.77
2018-12-02T04:41:44.846Z,214.80
2018-12-02T04:44:41.108Z,238.12
2018-12-02T04:47:37.773Z,214.20
2018-12-02T04:50:34.208Z,202.28
2018-12-02T04:53:30.325Z,216.12
2018-12-02T04:56:26.647Z,210.85
2018-12-02T04:59:26.429Z,197.13
2018-12-02T05:02:23.062Z,203.42
2018-12-02T05:05:22.397Z,205.80
2018-12-02T05:08:18.828Z,195.43
2018-12-02T05:11:15.070Z,192.22
2018-12-02T05:14:11.686Z,214.53
2018-12-02T05:17:07.833Z,204.95
2018-12-02T05:20:05.219Z,181.57
2018-12-02T05:23:02.769Z,185.43
2018-12-02T05:25:58.764Z,181.07
2018-12-02T05:28:55.930Z,172.50
2018-12-02T05:31:52.018Z,186.55
2018-12-02T05:34:48.463Z,215.68
2018-12-02T05:37:44.508Z,210.72
2018-12-02T05:40:43.206Z,211.60
2018-12-02T05:43:39.795Z,195.68
2018-12-02T05:46:36.194Z,217.97
2018-12-02T05:49:32.584Z,208.40
2018-12-02T05:52:29.058Z,210.80
2018-12-02T05:55:30.004Z,216.95
2018-12-02T05:58:26.261Z,223.10
2018-12-02T06:01:22.423Z,206.35
2018-12-02T06:04:18.923Z,206.53
2018-12-02T06:07:15.072Z,219.57
2018-12-02T06:10:16.813Z,212.72
2018-12-02T06:13:13.471Z,191.10
2018-12-02T06:16:13.728Z,196.12
2018-12-02T06:19:10.356Z,197.95
2018-12-02T06:22:06.714Z,195.87
2018-12-02T06:25:03.422Z,199.82
2018-12-02T06:27:59.830Z,185.00
2018-12-02T06:30:56.260Z,189.85
2018-12-02T06:33:52.954Z,186.43
2018-12-02T06:36:52.882Z,164.80
2018-12-02T06:39:49.559Z,181.72
2018-12-02T06:42:46.652Z,168.45
2018-12-02T06:45:42.967Z,180.10
2018-12-02T06:48:43.235Z,198.70
2018-12-02T06:51:39.471Z,176.12
2018-12-02T06:54:36.299Z,186.52
2018-12-02T06:57:34.461Z,181.20
2018-12-02T07:00:57.687Z,234.57
2018-12-02T07:04:30.003Z,161.80
2018-12-02T07:07:27.275Z,155.07
2018-12-02T07:10:23.978Z,145.92
2018-12-02T07:13:20.597Z,150.35
2018-12-02T07:16:16.837Z,155.97
2018-12-02T07:19:15.999Z,153.80
2018-12-02T07:22:33.787Z,149.40
2018-12-02T07:25:31.448Z,167.18
2018-12-02T07:28:27.614Z,153.82
2018-12-02T07:31:26.739Z,152.10
2018-12-02T07:34:41.517Z,174.18
2018-12-02T07:37:38.752Z,149.95
2018-12-02T07:40:40.024Z,146.57
2018-12-02T07:43:36.568Z,161.52
2018-12-02T07:46:32.696Z,165.92
2018-12-02T07:49:28.942Z,166.25
2018-12-02T07:52:25.655Z,170.90
2018-12-02T07:55:22.343Z,165.77
2018-12-02T07:58:21.764Z,142.10
2018-12-02T08:01:18.162Z,157.50
2018-12-02T08:04:20.052Z,162.75
2018-12-02T08:07:11.985Z,152.78
2018-12-02T08:10:13.653Z,148.43
2018-12-02T08:13:10.378Z,151.97
2018-12-02T08:16:08.003Z,175.62
2018-12-02T08:19:14.701Z,167.75
2018-12-02T08:22:12.159Z,140.03
2018-12-02T08:25:08.823Z,152.07
2018-12-02T08:28:06.176Z,155.82
2018-12-02T08:31:03.966Z,163.12
2018-12-02T08:34:03.166Z,164.82
2018-12-02T08:37:00.511Z,146.47
2018-12-02T08:39:57.820Z,151.90
2018-12-02T08:42:54.648Z,154.63
2018-12-02T08:45:52.086Z,155.60
2018-12-02T08:48:49.066Z,163.35
2018-12-02T08:51:46.528Z,153.10
2018-12-02T08:54:43.537Z,150.25
2018-12-02T08:57:41.354Z,156.87
2018-12-02T09:00:39.354Z,146.10
2018-12-02T09:03:36.714Z,146.32
2018-12-02T09:06:34.701Z,162.22
2018-12-02T09:09:31.947Z,167.25
2018-12-02T09:12:29.748Z,160.03
2018-12-02T09:15:27.071Z,144.68
2018-12-02T09:18:24.010Z,146.77
2018-12-02T09:21:24.149Z,154.38
2018-12-02T09:24:23.513Z,162.22
2018-12-02T09:27:22.097Z,165.28
2018-12-02T09:30:43.530Z,152.45
2018-12-02T09:33:40.613Z,161.50
2018-12-02T09:36:37.613Z,164.93
2018-12-02T09:39:35.573Z,160.60
2018-12-02T09:42:32.909Z,157.72
2018-12-02T09:45:34.967Z,169.80
2018-12-02T09:48:29.395Z,165.25
2018-12-02T09:51:26.843Z,169.17
2018-12-02T09:54:23.878Z,163.70
2018-12-02T09:57:21.225Z,192.43
2018-12-02T10:00:25.404Z,187.50
2018-12-02T10:03:22.834Z,160.65
2018-12-02T10:06:19.990Z,160.07
2018-12-02T10:09:18.448Z,156.90
2018-12-02T10:12:15.556Z,165.32
2018-12-02T10:15:14.926Z,146.55
2018-12-02T10:18:12.631Z,149.77
2018-12-02T10:21:10.227Z,162.72
2018-12-02T10:24:07.272Z,160.00
2018-12-02T10:27:04.512Z,159.00
2018-12-02T10:30:01.274Z,164.88
2018-12-02T10:33:00.190Z,166.82
2018-12-02T10:35:57.242Z,157.35
2018-12-02T10:38:54.445Z,166.80
2018-12-02T10:41:54.065Z,161.40
2018-12-02T10:44:48.449Z,165.92
2018-12-02T10:47:45.352Z,161.37
2018-12-02T10:50:42.925Z,168.72
2018-12-02T10:53:39.807Z,169.50
2018-12-02T10:56:36.729Z,177.32
2018-12-02T10:59:33.633Z,164.85
2018-12-02T11:02:30.284Z,164.28
2018-12-02T11:05:27.207Z,162.12
2018-12-02T11:08:23.936Z,161.62
2018-12-02T11:11:25.716Z,176.15
2018-12-02T11:14:22.669Z,167.37
2018-12-02T11:17:19.664Z,174.47
2018-12-02T11:20:18.129Z,159.27
2018-12-02T11:23:15.549Z,181.28
2018-12-02T11:26:12.083Z,173.45
2018-12-02T11:29:11.704Z,167.85
2018-12-02T11:32:05.574Z,176.07
2018-12-02T11:35:01.915Z,167.43
2018-12-02T11:37:58.022Z,181.70
2018-12-02T11:40:54.548Z,174.23
2018-12-02T11:43:51.305Z,196.60
2018-12-02T11:46:47.857Z,181.40
2018-12-02T11:49:44.361Z,190.57
2018-12-02T11:52:44.316Z,179.95
2018-12-02T11:55:40.867Z,182.55
2018-12-02T11:58:37.614Z,186.55
2018-12-02T12:01:34.119Z,184.57
2018-12-02T12:04:31.181Z,184.32
2018-12-02T12:07:27.696Z,197.85
2018-12-02T12:10:28.042Z,191.85
2018-12-02T12:13:24.257Z,191.77
2018-12-02T12:16:21.487Z,204.15
2018-12-02T12:19:17.496Z,193.65
2018-12-02T12:22:14.034Z,213.22
2018-12-02T12:25:11.162Z,194.72
2018-12-02T12:28:07.450Z,219.13
2018-12-02T12:31:03.643Z,218.95
2018-12-02T12:33:59.708Z,220.35
2018-12-02T12:36:56.155Z,237.88
2018-12-02T12:39:52.811Z,246.25
2018-12-02T12:42:53.415Z,238.50
2018-12-02T12:45:49.587Z,224.80
2018-12-02T12:48:45.706Z,227.25
2018-12-02T12:51:41.543Z,235.72
2018-12-02T12:54:38.096Z,233.20
2018-12-02T12:57:37.389Z,210.95
2018-12-02T13:00:33.569Z,226.00
2018-12-02T13:03:29.812Z,240.52
2018-12-02T13:06:25.904Z,245.10
2018-12-02T13:09:21.817Z,261.40
2018-12-02T13:12:18.539Z,257.85
2018-12-02T13:15:25.067Z,275.90
2018-12-02T13:18:21.190Z,292.73
2018-12-02T13:21:18.400Z,275.65
2018-12-02T13:24:14.900Z,279.60
2018-12-02T13:27:11.632Z,273.32
2018-12-02T13:30:08.319Z,295.67
2018-12-02T13:33:05.087Z,305.85
2018-12-02T13:36:02.921Z,291.20
2018-12-02T13:38:59.654Z,277.68
2018-12-02T13:41:56.740Z,278.62
2018-12-02T13:44:53.615Z,280.15
2018-12-02T13:47:53.748Z,271.25
2018-12-02T13:50:50.391Z,274.40
2018-12-02T13:54:03.380Z,261.65
2018-12-02T13:56:59.946Z,267.82
2018-12-02T13:59:57.075Z,295.45
2018-12-02T14:03:01.178Z,268.88
2018-12-02T14:05:57.386Z,283.25
2018-12-02T14:08:54.665Z,260.00
2018-12-02T14:11:51.149Z,300.05
2018-12-02T14:14:49.299Z,269.60
2018-12-02T14:17:46.805Z,269.57
2018-12-02T14:20:43.476Z,292.25
2018-12-02T14:23:41.356Z,282.15
2018-12-02T14:26:37.988Z,270.50
2018-12-02T14:29:43.341Z,280.80
2018-12-02T14:32:40.010Z,286.82
2018-12-02T14:35:37.085Z,266.77
2018-12-02T14:38:34.115Z,274.37
2018-12-02T14:41:31.167Z,268.65
2018-12-02T14:44:28.383Z,265.50
2018-12-02T14:47:26.866Z,264.72
2018-12-02T14:50:23.852Z,262.77
2018-12-02T14:53:23.431Z,254.63
2018-12-02T14:56:20.431Z,266.40
2018-12-02T14:59:17.139Z,302.30
2018-12-02T15:02:13.982Z,295.63
2018-12-02T15:05:11.298Z,306.65
2018-12-02T15:08:07.792Z,303.23
2018-12-02T15:11:04.522Z,316.80
2018-12-02T15:14:01.127Z,314.40
2018-12-02T15:16:57.794Z,332.18
2018-12-02T15:19:54.773Z,326.98
2018-12-02T15:22:52.047Z,297.63
2018-12-02T15:25:48.386Z,314.25
2018-12-02T15:28:45.106Z,311.55
2018-12-02T15:31:41.516Z,317.82
2018-12-02T15:34:37.570Z,323.05
2018-12-02T15:37:33.969Z,338.35
2018-12-02T15:40:31.164Z,318.10
2018-12-02T15:43:30.498Z,290.57
2018-12-02T15:46:29.944Z,300.75
2018-12-02T15:49:26.198Z,316.55
2018-12-02T15:52:22.739Z,304.40
2018-12-02T15:55:33.209Z,294.82
2018-12-02T15:58:30.043Z,304.60
2018-12-02T16:01:27.172Z,277.30
2018-12-02T16:04:23.805Z,297.30
2018-12-02T16:07:20.263Z,281.40
2018-12-02T16:10:18.308Z,290.23
2018-12-02T16:13:16.126Z,302.73
2018-12-02T16:16:15.924Z,336.77
2018-12-02T16:19:12.690Z,317.73
2018-12-02T16:22:09.578Z,348.35
2018-12-02T16:25:05.938Z,323.15
2018-12-02T16:28:02.528Z,331.02
2018-12-02T16:31:00.086Z,333.85
2018-12-02T16:33:59.684Z,315.68
2018-12-02T16:36:56.150Z,300.98
2018-12-02T16:39:52.779Z,315.32
2018-12-02T16:42:51.830Z,327.50
2018-12-02T16:45:47.866Z,326.25
2018-12-02T16:48:43.630Z,327.52
2018-12-02T16:51:39.840Z,330.73
2018-12-02T16:54:36.284Z,328.07
2018-12-02T16:57:32.959Z,322.23
2018-12-02T17:00:35.196Z,300.62
2018-12-02T17:03:31.361Z,296.57
2018-12-02T17:06:27.654Z,300.50
2018-12-02T17:09:24.138Z,292.57
2018-12-02T17:12:21.284Z,266.25
2018-12-02T17:15:24.402Z,271.62
2018-12-02T17:18:20.797Z,277.10
2018-12-02T17:21:17.214Z,287.35
2018-12-02T17:24:14.625Z,263.68
2018-12-02T17:27:10.833Z,243.90
2018-12-02T17:30:07.734Z,257.92
2018-12-02T17:33:03.946Z,258.43
2018-12-02T17:35:59.974Z,235.82
2018-12-02T17:38:58.970Z,238.10
2018-12-02T17:41:58.281Z,240.47
2018-12-02T17:44:54.414Z,226.25
2018-12-02T17:47:51.095Z,224.00
2018-12-02T17:50:47.802Z,218.67
2018-12-02T17:53:49.585Z,231.23
2018-12-02T17:56:41.766Z,232.70
2018-12-02T17:59:37.858Z,234.22
2018-12-02T18:02:33.851Z,224.58
2018-12-02T18:05:44.164Z,230.87
2018-12-02T18:08:40.544Z,249.80
2018-12-02T18:11:36.581Z,231.95
2018-12-02T18:14:34.218Z,240.80
2018-12-02T18:17:31.378Z,255.47
2018-12-02T18:20:27.466Z,246.95
2018-12-02T18:23:23.447Z,255.15
2018-12-02T18:26:20.043Z,255.65
2018-12-02T18:29:16.623Z,277.32
2018-12-02T18:32:15.753Z,275.75
2018-12-02T18:35:50.116Z,268.15
2018-12-02T18:38:47.811Z,249.80
2018-12-02T18:41:45.992Z,275.93
2018-12-02T18:44:42.124Z,254.35
2018-12-02T18:47:38.483Z,250.28
2018-12-02T18:50:34.861Z,253.65
2018-12-02T18:53:31.956Z,253.70
2018-12-02T18:56:28.779Z,252.80
2018-12-02T18:59:25.555Z,253.15
2018-12-02T19:02:22.152Z,245.78
2018-12-02T19:05:18.744Z,241.78
2018-12-02T19:08:15.058Z,228.62
2018-12-02T19:11:11.821Z,257.83
2018-12-02T19:14:08.009Z,294.02
2018-12-02T19:17:04.160Z,271.48
2018-12-02T19:20:00.537Z,248.70
2018-12-02T19:22:58.759Z,221.60
2018-12-02T19:25:55.750Z,257.02
2018-12-02T19:28:51.886Z,249.02
2018-12-02T19:31:48.222Z,248.47
2018-12-02T19:34:44.765Z,246.82
2018-12-02T19:37:40.831Z,235.78
2018-12-02T19:40:38.000Z,239.53
2018-12-02T19:43:34.262Z,252.13
2018-12-02T19:46:30.154Z,249.65
2018-12-02T19:49:29.634Z,228.85
2018-12-02T19:52:25.983Z,221.43
2018-12-02T19:55:21.835Z,230.75
2018-12-02T19:58:19.537Z,216.53
2018-12-02T20:01:15.709Z,247.48
2018-12-02T20:04:11.914Z,218.88
2018-12-02T20:07:08.317Z,243.95
2018-12-02T20:10:04.689Z,238.95
2018-12-02T20:13:04.478Z,227.18
2018-12-02T20:16:25.439Z,238.55
2018-12-02T20:19:38.987Z,244.75
2018-12-02T20:22:35.523Z,243.02
2018-12-02T20:25:31.975Z,226.02
2018-12-02T20:28:32.972Z,237.85
2018-12-02T20:31:33.576Z,218.85
2018-12-02T20:34:29.511Z,233.90
2018-12-02T20:37:25.496Z,244.45
2018-12-02T20:40:22.938Z,226.77
2018-12-02T20:43:19.263Z,231.85
2018-12-02T20:46:15.288Z,228.25
2018-12-02T20:49:11.782Z,211.03
2018-12-02T20:52:08.500Z,220.50
2018-12-02T20:55:04.879Z,234.55
2018-12-02T20:58:05.751Z,227.35
2018-12-02T21:01:03.420Z,223.75
2018-12-02T21:03:59.865Z,223.18
2018-12-02T21:06:56.199Z,259.85
2018-12-02T21:09:52.418Z,249.55
2018-12-02T21:12:48.555Z,227.72
2018-12-02T21:15:44.930Z,240.80
2018-12-02T21:18:43.916Z,261.55
2018-12-02T21:21:40.062Z,238.85
2018-12-02T21:24:36.084Z,222.73
2018-12-02T21:27:32.435Z,278.88
2018-12-02T21:30:31.649Z,253.98
2018-12-02T21:33:28.206Z,239.97
2018-12-02T21:36:24.799Z,232.45
2018-12-02T21:39:21.132Z,258.87
2018-12-02T21:42:23.002Z,279.00
2018-12-02T21:45:22.761Z,301.70
2018-12-02T21:48:30.450Z,347.45
2018-12-02T21:51:26.736Z,370.27
2018-12-02T21:54:23.166Z,357.70
2018-12-02T21:57:19.444Z,388.50
2018-12-02T22:00:42.006Z,503.88
2018-12-02T22:03:38.132Z,480.87
2018-12-02T22:06:34.349Z,510.57
2018-12-02T22:09:34.207Z,503.88
2018-12-02T22:12:27.624Z,527.15
2018-12-02T22:15:24.472Z,526.15
2018-12-02T22:18:20.727Z,529.67
2018-12-02T22:21:20.132Z,520.48
2018-12-02T22:24:19.270Z,513.30
2018-12-02T22:27:15.378Z,522.77
2018-12-02T22:30:15.534Z,509.70
2018-12-02T22:33:12.796Z,509.73
2018-12-02T22:36:14.046Z,518.05
2018-12-02T22:39:08.702Z,514.23
2018-12-02T22:42:05.156Z,501.43
2018-12-02T22:45:01.380Z,509.22
2018-12-02T22:47:57.648Z,497.73
2018-12-02T22:50:53.935Z,481.45
2018-12-02T22:53:52.905Z,478.02
2018-12-02T22:56:49.000Z,499.50
2018-12-02T22:59:45.858Z,495.15
2018-12-02T23:02:58.491Z,496.27
2018-12-02T23:05:58.135Z,505.22
2018-12-02T23:08:54.806Z,505.45
2018-12-02T23:11:51.470Z,512.00
2018-12-02T23:14:51.282Z,508.85
2018-12-02T23:17:45.049Z,529.95
2018-12-02T23:20:41.029Z,541.65
2018-12-02T23:23:38.066Z,545.33
2018-12-02T23:26:34.369Z,549.42
2018-12-02T23:29:30.676Z,575.80
2018-12-02T23:32:27.065Z,557.77
2018-12-02T23:35:23.307Z,553.38
2018-12-02T23:38:19.553Z,575.85
2018-12-02T23:41:18.846Z,615.77
2018-12-02T23:44:15.207Z,629.85
2018-12-02T23:47:18.667Z,601.35
2018-12-02T23:50:21.779Z,595.50
2018-12-02T23:53:24.921Z,614.92
2018-12-02T23:56:18.131Z,607.60
2018-12-02T23:59:14.126Z,568.55
